Terminal Aerodrome Forecast
Issued by NWS

Home | Current Version | Previous Version | Text Only | Print | Product List | Glossary Off
Versions: 1 2 3 4 5 6 7 8 9 10 11 12 13 14 15 16 17

000
FTUS41 KCLE 252300
TAFFDY
TAF
KFDY 252328Z 2600/2624 05006KT P6SM OVC080
     FM260900 03008KT 3SM -SN OVC025
     FM261100 03008KT 1SM -SN BR OVC010
     FM261800 01010KT 5SM -SN BR OVC015
     FM262300 36008KT P6SM OVC020=

USA.gov is the U.S. government's official web portal to all federal, state and local government web resources and services.